Time;durP1;ratioP1;P1;durP2;ratioP2;P2;SDS_P1;SDS_P2;PMS_P1;PMS_P2;Temp;Humidity;BMP_temperature;BMP_pressure;BME280_temperature;BME280_humidity;BME280_pressure;Samples;Min_cycle;Max_cycle;Signal;HPM_P1;HPM_P2
2022/10/18 00:01:28;;;;;;;44.95;30.08;;;;;;;;;;4430097;32;20014;-78
2022/10/18 00:03:53;;;;;;;42.08;28.12;;;;;;;;;;4430672;32;20034;-78
2022/10/18 00:06:18;;;;;;;47.30;31.75;;;;;;;;;;4425283;32;20071;-78
2022/10/18 00:08:43;;;;;;;46.67;30.77;;;;;;;;;;4424458;32;20426;-78
2022/10/18 00:11:09;;;;;;;46.97;28.00;;;;;;;;;;4411329;32;20026;-77
2022/10/18 00:13:34;;;;;;;44.55;28.87;;;;;;;;;;4427801;32;20076;-78
2022/10/18 00:16:00;;;;;;;39.47;28.70;;;;;;;;;;4425318;32;20026;-79
2022/10/18 00:18:26;;;;;;;51.42;33.72;;;;;;;;;;4424821;32;20149;-78
2022/10/18 00:21:04;;;;;;;36.72;27.87;;;;;;;;;;4423534;32;20071;-78
2022/10/18 00:23:30;;;;;;;45.35;29.20;;;;;;;;;;4425392;32;20041;-78
2022/10/18 00:25:55;;;;;;;;;;;;;;;;;;4424524;32;20021;-78
2022/10/18 00:28:20;;;;;;;39.17;26.30;;;;;;;;;;4423741;32;20369;-78
2022/10/18 00:30:45;;;;;;;32.90;26.02;;;;;;;;;;4424062;32;20074;-78
2022/10/18 00:33:11;;;;;;;45.17;31.02;;;;;;;;;;4422541;32;20358;-78
2022/10/18 00:35:36;;;;;;;42.15;28.92;;;;;;;;;;4423590;32;20116;-78
2022/10/18 00:38:01;;;;;;;23.85;19.52;;;;;;;;;;4436498;27;20456;-77
2022/10/18 00:40:26;;;;;;;29.37;24.05;;;;;;;;;;4421644;32;20018;-76
2022/10/18 00:42:51;;;;;;;44.13;27.60;;;;;;;;;;4407230;32;20161;-77
2022/10/18 00:45:19;;;;;;;50.10;27.55;;;;;;;;;;4406775;32;20030;-77
2022/10/18 00:47:47;;;;;;;34.58;26.05;;;;;;;;;;4420329;32;20094;-78
2022/10/18 00:50:12;;;;;;;35.78;24.20;;;;;;;;;;4406725;32;20021;-76
2022/10/18 00:52:37;;;;;;;;;;;;;;;;;;4421388;32;20400;-76
2022/10/18 00:55:03;;;;;;;31.52;24.77;;;;;;;;;;4421779;32;19951;-77
2022/10/18 00:57:29;;;;;;;23.60;21.10;;;;;;;;;;4420882;32;20148;-76
2022/10/18 00:59:54;;;;;;;31.90;23.00;;;;;;;;;;4420435;32;20450;-76
2022/10/18 01:02:20;;;;;;;30.23;22.25;;;;;;;;;;4420269;32;20114;-77
2022/10/18 01:04:46;;;;;;;28.52;22.13;;;;;;;;;;4421979;32;20075;-77
2022/10/18 01:07:20;;;;;;;24.33;21.60;;;;;;;;;;4422317;32;20095;-77
2022/10/18 01:09:51;;;;;;;24.45;21.85;;;;;;;;;;4422934;32;20038;-77
2022/10/18 01:12:35;;;;;;;27.08;21.62;;;;;;;;;;4406885;32;20026;-75
2022/10/18 01:15:00;;;;;;;25.92;21.67;;;;;;;;;;4420903;32;20048;-76
2022/10/18 01:17:25;;;;;;;;;;;;;;;;;;4407981;32;20022;-76
2022/10/18 01:19:57;;;;;;;27.40;24.05;;;;;;;;;;4408142;32;20341;-77
2022/10/18 01:22:25;;;;;;;24.02;21.45;;;;;;;;;;4420800;32;20143;-77
2022/10/18 01:24:57;;;;;;;23.75;21.48;;;;;;;;;;4406798;32;20114;-76
2022/10/18 01:27:23;;;;;;;19.55;17.62;;;;;;;;;;4421093;32;20022;-75
2022/10/18 01:29:48;;;;;;;;;;;;;;;;;;4406935;32;20491;-76
2022/10/18 01:32:19;;;;;;;26.85;20.90;;;;;;;;;;4421503;32;19960;-76
2022/10/18 01:34:46;;;;;;;23.33;19.85;;;;;;;;;;4407018;32;20640;-77
2022/10/18 01:37:13;;;;;;;98.30;25.08;;;;;;;;;;4420805;32;20026;-76
2022/10/18 01:39:40;;;;;;;61.22;26.83;;;;;;;;;;4406673;32;20027;-77
2022/10/18 01:42:09;;;;;;;231.95;35.20;;;;;;;;;;4406491;32;20041;-76
2022/10/18 01:44:35;;;;;;;160.23;33.00;;;;;;;;;;4406348;32;20432;-76
2022/10/18 01:47:01;;;;;;;123.93;27.90;;;;;;;;;;4406141;32;20053;-76
2022/10/18 01:49:27;;;;;;;110.68;25.50;;;;;;;;;;4409873;32;20052;-77
2022/10/18 01:51:52;;;;;;;;;;;;;;;;;;4403566;32;20022;-76
2022/10/18 01:54:20;;;;;;;117.25;25.50;;;;;;;;;;4404571;32;19941;-77
2022/10/18 01:56:48;;;;;;;69.35;22.65;;;;;;;;;;4404759;32;20026;-75
2022/10/18 01:59:18;;;;;;;49.47;15.68;;;;;;;;;;4390705;32;20050;-76
2022/10/18 02:01:49;;;;;;;89.72;26.00;;;;;;;;;;4405012;32;20047;-75
2022/10/18 02:04:17;;;;;;;77.43;25.50;;;;;;;;;;4405395;32;20048;-76
2022/10/18 02:06:44;;;;;;;126.47;26.08;;;;;;;;;;4405183;32;20072;-77
2022/10/18 02:09:18;;;;;;;173.73;27.02;;;;;;;;;;4405044;32;20046;-77
2022/10/18 02:11:44;;;;;;;109.85;25.67;;;;;;;;;;4403401;32;20018;-76
2022/10/18 02:14:11;;;;;;;52.60;27.33;;;;;;;;;;4405009;32;20523;-76
2022/10/18 02:16:44;;;;;;;69.12;27.85;;;;;;;;;;4390726;32;20039;-75
2022/10/18 02:19:14;;;;;;;71.47;24.98;;;;;;;;;;4391119;32;20208;-75
2022/10/18 02:21:41;;;;;;;75.20;26.05;;;;;;;;;;4405706;32;20086;-76
2022/10/18 02:24:07;;;;;;;94.82;27.85;;;;;;;;;;4419572;32;20521;-76
2022/10/18 02:26:33;;;;;;;66.30;20.50;;;;;;;;;;4423115;32;20079;-76
2022/10/18 02:28:58;;;;;;;;;;;;;;;;;;4409170;32;20101;-78
2022/10/18 02:31:29;;;;;;;30.42;20.92;;;;;;;;;;4408668;32;19945;-76
2022/10/18 02:34:13;;;;;;;47.25;24.60;;;;;;;;;;4408809;32;20144;-77
2022/10/18 02:36:44;;;;;;;71.75;34.80;;;;;;;;;;4408611;32;20038;-77
2022/10/18 02:39:15;;;;;;;27.70;20.92;;;;;;;;;;4422337;32;20169;-76
2022/10/18 02:41:42;;;;;;;35.55;24.60;;;;;;;;;;4409177;32;20040;-76
2022/10/18 02:44:07;;;;;;;32.92;24.80;;;;;;;;;;4408512;32;20021;-77
2022/10/18 02:46:32;;;;;;;;;;;;;;;;;;4408626;32;20374;-77
2022/10/18 02:48:57;;;;;;;36.33;24.92;;;;;;;;;;4408363;32;19947;-76
2022/10/18 02:51:22;;;;;;;25.12;19.37;;;;;;;;;;4408904;32;20049;-76
2022/10/18 02:53:48;;;;;;;32.03;23.12;;;;;;;;;;4408492;32;20018;-77
2022/10/18 02:56:13;;;;;;;28.17;20.88;;;;;;;;;;4422198;32;20030;-77
2022/10/18 02:58:38;;;;;;;;;;;;;;;;;;4408540;32;20022;-77
2022/10/18 03:01:03;;;;;;;30.98;21.45;;;;;;;;;;4408218;32;19979;-77
2022/10/18 03:03:28;;;;;;;;;;;;;;;;;;4416167;32;20142;-77
2022/10/18 03:05:54;;;;;;;29.45;23.83;;;;;;;;;;4407304;32;20259;-77
2022/10/18 03:08:19;;;;;;;30.33;19.75;;;;;;;;;;4393287;32;20093;-76
2022/10/18 03:10:44;;;;;;;28.10;19.85;;;;;;;;;;4407599;32;20023;-77
2022/10/18 03:13:10;;;;;;;27.37;21.02;;;;;;;;;;4408341;32;20110;-77
2022/10/18 03:15:37;;;;;;;;;;;;;;;;;;4406937;32;20026;-77
2022/10/18 03:18:03;;;;;;;40.60;23.75;;;;;;;;;;4407250;32;19971;-77
2022/10/18 03:20:28;;;;;;;;;;;;;;;;;;4407383;32;20090;-77
2022/10/18 03:22:53;;;;;;;39.25;24.63;;;;;;;;;;4406606;32;19966;-76
2022/10/18 03:25:18;;;;;;;35.58;23.87;;;;;;;;;;4407185;32;20449;-77
2022/10/18 03:27:44;;;;;;;31.70;23.67;;;;;;;;;;4406944;32;20125;-77
2022/10/18 03:30:10;;;;;;;29.00;22.42;;;;;;;;;;4392572;32;20070;-77
2022/10/18 03:32:36;;;;;;;28.70;21.05;;;;;;;;;;4392579;32;20023;-76
2022/10/18 03:35:01;;;;;;;;;;;;;;;;;;4393835;32;20124;-77
2022/10/18 03:37:26;;;;;;;30.45;22.75;;;;;;;;;;4405592;32;19933;-77
2022/10/18 03:39:51;;;;;;;22.35;19.15;;;;;;;;;;4406434;32;20038;-76
2022/10/18 03:42:16;;;;;;;27.02;21.50;;;;;;;;;;4407124;32;20057;-76
2022/10/18 03:44:41;;;;;;;27.45;20.08;;;;;;;;;;4392007;32;20360;-77
2022/10/18 03:47:07;;;;;;;24.08;18.35;;;;;;;;;;4407266;32;20026;-77
2022/10/18 03:49:33;;;;;;;20.95;17.42;;;;;;;;;;4403884;32;20049;-76
2022/10/18 03:51:58;;;;;;;;;;;;;;;;;;4421076;32;20022;-76
2022/10/18 03:54:23;;;;;;;23.62;16.37;;;;;;;;;;4407475;32;19933;-75
2022/10/18 03:56:48;;;;;;;25.08;19.62;;;;;;;;;;4414319;32;20090;-76
2022/10/18 03:59:15;;;;;;;28.27;17.85;;;;;;;;;;4421385;32;20343;-76
2022/10/18 04:01:41;;;;;;;22.98;17.58;;;;;;;;;;4421037;32;20467;-76
2022/10/18 04:04:06;;;;;;;;;;;;;;;;;;4421725;32;20075;-77
2022/10/18 04:06:31;;;;;;;20.12;15.55;;;;;;;;;;4420984;32;20311;-76
2022/10/18 04:08:56;;;;;;;27.55;17.95;;;;;;;;;;4407821;32;20119;-75
2022/10/18 04:11:21;;;;;;;20.85;16.37;;;;;;;;;;4420781;32;20419;-77
2022/10/18 04:13:46;;;;;;;23.12;15.88;;;;;;;;;;4407146;32;20052;-75
2022/10/18 04:16:12;;;;;;;22.45;16.50;;;;;;;;;;4408357;32;20461;-77
2022/10/18 04:18:37;;;;;;;;;;;;;;;;;;4421000;32;20022;-77
2022/10/18 04:21:02;;;;;;;20.15;15.27;;;;;;;;;;4406924;32;20331;-75
2022/10/18 04:23:27;;;;;;;22.42;17.40;;;;;;;;;;4421202;32;20022;-77
2022/10/18 04:25:52;;;;;;;19.02;15.02;;;;;;;;;;4420737;32;20439;-77
2022/10/18 04:28:17;;;;;;;27.87;16.95;;;;;;;;;;4407095;32;20022;-78
2022/10/18 04:30:43;;;;;;;23.48;14.73;;;;;;;;;;4420940;32;20045;-76
2022/10/18 04:33:08;;;;;;;;;;;;;;;;;;4420861;32;20045;-77
2022/10/18 04:35:33;;;;;;;26.30;14.68;;;;;;;;;;4407028;32;19996;-77
2022/10/18 04:37:58;;;;;;;24.77;15.65;;;;;;;;;;4420549;32;20045;-77
2022/10/18 04:40:23;;;;;;;34.63;17.12;;;;;;;;;;4421149;32;20040;-76
2022/10/18 04:42:49;;;;;;;30.88;16.05;;;;;;;;;;4420979;32;20057;-76
2022/10/18 04:45:14;;;;;;;40.95;17.58;;;;;;;;;;4420871;32;20021;-76
2022/10/18 04:47:39;;;;;;;;;;;;;;;;;;4420112;32;20078;-76
2022/10/18 04:50:04;;;;;;;41.67;16.92;;;;;;;;;;4420236;32;19937;-77
2022/10/18 04:52:29;;;;;;;;;;;;;;;;;;4406814;32;20144;-76
2022/10/18 04:54:55;;;;;;;20.58;14.27;;;;;;;;;;4406452;32;19945;-76
2022/10/18 04:57:20;;;;;;;;;;;;;;;;;;4420895;32;20166;-77
2022/10/18 04:59:45;;;;;;;26.00;15.86;;;;;;;;;;4420707;32;20267;-75
2022/10/18 05:02:10;;;;;;;;;;;;;;;;;;4411974;32;20060;-75
2022/10/18 05:04:35;;;;;;;22.37;13.13;;;;;;;;;;4392215;32;20291;-77
2022/10/18 05:07:01;;;;;;;26.35;13.68;;;;;;;;;;4405890;32;20057;-77
2022/10/18 05:09:26;;;;;;;40.03;15.38;;;;;;;;;;4391608;32;20025;-77
2022/10/18 05:11:52;;;;;;;;;;;;;;;;;;4391955;32;20026;-77
2022/10/18 05:14:17;;;;;;;45.10;17.42;;;;;;;;;;4391003;32;19937;-77
2022/10/18 05:16:42;;;;;;;49.25;18.62;;;;;;;;;;4406997;32;20026;-77
2022/10/18 05:19:08;;;;;;;55.17;20.58;;;;;;;;;;4391469;32;20073;-77
2022/10/18 05:21:33;;;;;;;;;;;;;;;;;;4406244;32;20355;-77
2022/10/18 05:23:58;;;;;;;82.25;24.02;;;;;;;;;;4405617;32;19992;-76
2022/10/18 05:26:23;;;;;;;57.62;22.67;;;;;;;;;;4405165;32;20026;-77
2022/10/18 05:28:49;;;;;;;78.85;23.70;;;;;;;;;;4391634;32;20080;-78
2022/10/18 05:31:14;;;;;;;68.00;25.67;;;;;;;;;;4405836;32;20437;-77
2022/10/18 05:33:40;;;;;;;100.43;26.12;;;;;;;;;;4405628;32;20050;-78
2022/10/18 05:36:05;;;;;;;;;;;;;;;;;;4406184;32;20095;-78
2022/10/18 05:38:30;;;;;;;74.28;24.27;;;;;;;;;;4405583;32;19973;-78
2022/10/18 05:40:56;;;;;;;108.32;26.00;;;;;;;;;;4405648;32;20018;-77
2022/10/18 05:43:21;;;;;;;94.55;23.73;;;;;;;;;;4409409;32;20094;-78
2022/10/18 05:45:47;;;;;;;89.78;27.00;;;;;;;;;;4410276;32;20026;-78
2022/10/18 05:48:12;;;;;;;68.62;28.08;;;;;;;;;;4409687;32;20199;-76
2022/10/18 05:50:37;;;;;;;56.88;24.60;;;;;;;;;;4408825;32;20049;-78
2022/10/18 05:53:02;;;;;;;48.28;23.70;;;;;;;;;;4393713;32;20060;-78
2022/10/18 05:55:27;;;;;;;42.65;22.13;;;;;;;;;;4407527;32;20022;-78
2022/10/18 05:57:53;;;;;;;48.42;24.05;;;;;;;;;;4407007;32;20049;-78
2022/10/18 06:00:18;;;;;;;50.00;23.40;;;;;;;;;;4410137;32;20019;-79
2022/10/18 06:02:43;;;;;;;;;;;;;;;;;;4410617;32;20026;-75
2022/10/18 06:05:08;;;;;;;45.00;19.10;;;;;;;;;;4408802;32;19990;-75
2022/10/18 06:07:33;;;;;;;;;;;;;;;;;;4393560;32;20613;-75
2022/10/18 06:09:58;;;;;;;68.15;24.70;;;;;;;;;;4408113;32;19993;-75
2022/10/18 06:12:23;;;;;;;46.33;22.67;;;;;;;;;;4408353;32;20048;-75
2022/10/18 06:14:49;;;;;;;49.00;20.00;;;;;;;;;;4407978;32;20200;-75
2022/10/18 06:17:14;;;;;;;;;;;;;;;;;;4407613;32;20022;-76
2022/10/18 06:19:39;;;;;;;39.08;19.42;;;;;;;;;;4393199;32;19937;-75
2022/10/18 06:22:04;;;;;;;;;;;;;;;;;;4393398;32;20130;-75
2022/10/18 06:24:29;;;;;;;51.58;25.12;;;;;;;;;;4397540;32;19973;-75
2022/10/18 06:26:55;;;;;;;;;;;;;;;;;;4422794;32;20155;-74
2022/10/18 06:29:20;;;;;;;47.65;20.30;;;;;;;;;;4422443;32;20238;-75
2022/10/18 06:31:45;;;;;;;40.15;21.37;;;;;;;;;;4408504;32;20026;-76
2022/10/18 06:34:10;;;;;;;;;;;;;;;;;;4422991;32;20075;-76
2022/10/18 06:36:35;;;;;;;54.10;22.45;;;;;;;;;;4408161;32;19992;-75
2022/10/18 06:39:01;;;;;;;46.47;20.58;;;;;;;;;;4422362;32;20034;-76
2022/10/18 06:41:26;;;;;;;43.92;20.15;;;;;;;;;;4422406;32;20079;-76
2022/10/18 06:43:53;;;;;;;39.10;20.83;;;;;;;;;;4422201;32;20018;-76
2022/10/18 06:46:19;;;;;;;39.72;20.80;;;;;;;;;;4421890;32;20023;-77
2022/10/18 06:48:44;;;;;;;;;;;;;;;;;;4422282;32;20057;-76
2022/10/18 06:51:10;;;;;;;39.00;18.83;;;;;;;;;;4422050;32;20323;-78
2022/10/18 06:53:38;;;;;;;40.60;17.90;;;;;;;;;;4407818;32;20021;-77
2022/10/18 06:56:06;;;;;;;46.00;20.42;;;;;;;;;;4421882;32;20022;-75
2022/10/18 06:58:31;;;;;;;41.60;21.33;;;;;;;;;;4408056;32;20022;-76
2022/10/18 07:00:56;;;;;;;;;;;;;;;;;;4422118;32;20037;-76
2022/10/18 07:03:21;;;;;;;40.28;18.30;;;;;;;;;;4421699;32;19933;-75
2022/10/18 07:05:46;;;;;;;;;;;;;;;;;;4421984;32;20167;-75
2022/10/18 07:08:12;;;;;;;43.05;19.92;;;;;;;;;;4421975;32;19933;-75
2022/10/18 07:10:37;;;;;;;37.35;19.05;;;;;;;;;;4407615;32;20015;-77
2022/10/18 07:13:02;;;;;;;;;;;;;;;;;;4422337;32;20022;-76
2022/10/18 07:15:28;;;;;;;30.30;16.60;;;;;;;;;;4407508;32;19974;-76
2022/10/18 07:17:53;;;;;;;29.40;16.30;;;;;;;;;;4421114;32;20022;-77
2022/10/18 07:20:18;;;;;;;33.22;15.18;;;;;;;;;;4423592;32;20075;-75
2022/10/18 07:22:43;;;;;;;31.75;14.98;;;;;;;;;;4421696;32;20393;-76
2022/10/18 07:25:08;;;;;;;43.30;15.40;;;;;;;;;;4421744;32;20078;-76
2022/10/18 07:27:33;;;;;;;;;;;;;;;;;;4422355;32;20374;-76
2022/10/18 07:29:59;;;;;;;29.87;10.20;;;;;;;;;;4421238;32;19941;-76
2022/10/18 07:32:24;;;;;;;31.33;11.12;;;;;;;;;;4407815;32;20042;-76
2022/10/18 07:34:49;;;;;;;26.08;10.90;;;;;;;;;;4421248;32;20023;-76
2022/10/18 07:37:14;;;;;;;20.50;10.40;;;;;;;;;;4407974;32;20056;-76
2022/10/18 07:39:39;;;;;;;27.33;11.12;;;;;;;;;;4421583;32;20436;-76
2022/10/18 07:42:05;;;;;;;22.58;9.48;;;;;;;;;;4408608;32;20086;-76
2022/10/18 07:44:30;;;;;;;19.90;7.80;;;;;;;;;;4407616;32;20066;-75
2022/10/18 07:46:55;;;;;;;19.40;8.45;;;;;;;;;;4420942;32;20033;-76
2022/10/18 07:49:20;;;;;;;;;;;;;;;;;;4407705;32;20022;-76
2022/10/18 07:51:45;;;;;;;32.38;10.32;;;;;;;;;;4407334;32;19985;-76
2022/10/18 07:54:10;;;;;;;33.42;8.88;;;;;;;;;;4419227;32;20391;-76
2022/10/18 07:56:36;;;;;;;25.15;7.00;;;;;;;;;;4406535;32;20042;-75
2022/10/18 07:59:01;;;;;;;20.40;7.00;;;;;;;;;;4405845;32;20053;-75
2022/10/18 08:01:26;;;;;;;15.60;5.62;;;;;;;;;;4393432;32;20506;-78
2022/10/18 08:03:52;;;;;;;43.25;8.60;;;;;;;;;;4405812;32;20022;-74
2022/10/18 08:06:17;;;;;;;23.55;5.55;;;;;;;;;;4406360;32;20030;-75
2022/10/18 08:08:43;;;;;;;15.70;4.45;;;;;;;;;;4392315;32;20064;-74
2022/10/18 08:11:10;;;;;;;16.85;4.97;;;;;;;;;;4405566;32;20359;-75
2022/10/18 08:13:35;;;;;;;16.67;6.32;;;;;;;;;;4393265;32;20026;-74
2022/10/18 08:16:01;;;;;;;63.53;11.48;;;;;;;;;;4406147;32;20046;-74
2022/10/18 08:18:27;;;;;;;23.05;5.60;;;;;;;;;;4405719;32;20034;-74
2022/10/18 08:20:52;;;;;;;15.45;5.03;;;;;;;;;;4405325;32;20026;-74
2022/10/18 08:23:17;;;;;;;11.57;3.75;;;;;;;;;;4405977;32;20069;-75
2022/10/18 08:25:42;;;;;;;21.45;6.30;;;;;;;;;;4419419;32;20026;-75
2022/10/18 08:28:07;;;;;;;17.12;4.05;;;;;;;;;;4421033;32;20102;-74
2022/10/18 08:30:33;;;;;;;24.27;5.05;;;;;;;;;;4420980;32;20030;-73
2022/10/18 08:32:59;;;;;;;15.80;4.62;;;;;;;;;;4406597;32;20057;-74
2022/10/18 08:35:24;;;;;;;27.62;5.15;;;;;;;;;;4406510;32;20092;-74
2022/10/18 08:37:50;;;;;;;16.02;3.92;;;;;;;;;;4421928;32;20061;-74
2022/10/18 08:40:15;;;;;;;19.50;4.00;;;;;;;;;;4420575;32;20151;-74
2022/10/18 08:42:46;;;;;;;13.23;4.32;;;;;;;;;;4420823;32;20366;-75
2022/10/18 08:45:11;;;;;;;12.68;3.65;;;;;;;;;;4421082;32;20069;-73
2022/10/18 08:47:41;;;;;;;15.82;3.60;;;;;;;;;;4420627;32;20305;-74
2022/10/18 08:50:12;;;;;;;33.97;6.20;;;;;;;;;;4421936;32;20116;-74
2022/10/18 08:52:50;;;;;;;15.63;4.07;;;;;;;;;;4407235;32;20037;-74
2022/10/18 08:55:15;;;;;;;14.57;3.50;;;;;;;;;;4407600;32;20139;-73
2022/10/18 08:57:40;;;;;;;17.05;3.42;;;;;;;;;;4421214;32;20343;-74
2022/10/18 09:00:19;;;;;;;24.23;3.87;;;;;;;;;;4419863;32;20030;-74
2022/10/18 09:03:02;;;;;;;14.32;2.62;;;;;;;;;;4420734;32;20022;-73
2022/10/18 09:05:37;;;;;;;10.30;2.30;;;;;;;;;;4420800;32;20018;-74
2022/10/18 09:08:08;;;;;;;16.98;3.20;;;;;;;;;;4421818;32;20060;-74
2022/10/18 09:10:42;;;;;;;15.65;2.90;;;;;;;;;;4406112;32;20052;-74
2022/10/18 09:13:08;;;;;;;12.35;3.08;;;;;;;;;;4405971;32;20018;-74
2022/10/18 09:15:50;;;;;;;8.13;2.12;;;;;;;;;;4419567;32;20074;-74
2022/10/18 09:18:35;;;;;;;7.65;1.65;;;;;;;;;;4420954;32;20145;-75
2022/10/18 09:21:14;;;;;;;11.15;2.42;;;;;;;;;;4421138;32;20094;-75
2022/10/18 09:23:40;;;;;;;8.38;1.73;;;;;;;;;;4418991;32;20052;-75
2022/10/18 09:26:18;;;;;;;13.80;2.92;;;;;;;;;;4404931;32;20101;-75
2022/10/18 09:28:51;;;;;;;10.25;2.33;;;;;;;;;;4391166;32;20056;-74
2022/10/18 09:31:43;;;;;;;10.95;2.53;;;;;;;;;;4390647;32;20022;-74
2022/10/18 09:34:18;;;;;;;13.50;2.75;;;;;;;;;;4402159;32;20089;-74
2022/10/18 09:36:44;;;;;;;22.37;3.92;;;;;;;;;;4404812;32;20068;-75
2022/10/18 09:39:17;;;;;;;13.75;2.12;;;;;;;;;;4404820;32;20118;-75
2022/10/18 09:41:53;;;;;;;8.07;2.15;;;;;;;;;;4391501;32;20048;-74
2022/10/18 09:44:38;;;;;;;11.18;1.85;;;;;;;;;;4406153;32;20027;-73
2022/10/18 09:47:21;;;;;;;6.47;1.83;;;;;;;;;;4405272;32;20030;-74
2022/10/18 09:49:50;;;;;;;11.05;2.70;;;;;;;;;;4390702;32;20055;-74
2022/10/18 09:52:22;;;;;;;7.57;2.75;;;;;;;;;;4391510;32;20439;-74
2022/10/18 09:54:59;;;;;;;10.60;2.08;;;;;;;;;;4400978;32;20427;-74
2022/10/18 09:57:32;;;;;;;7.62;2.58;;;;;;;;;;4405634;32;20022;-73
2022/10/18 09:59:59;;;;;;;21.35;3.00;;;;;;;;;;4420959;32;20343;-73
2022/10/18 10:02:24;;;;;;;6.57;2.17;;;;;;;;;;4419578;32;20086;-74
2022/10/18 10:04:50;;;;;;;13.15;2.08;;;;;;;;;;4420742;32;20153;-73
2022/10/18 10:07:19;;;;;;;10.82;1.70;;;;;;;;;;4421783;32;20030;-74
2022/10/18 10:09:45;;;;;;;10.63;2.55;;;;;;;;;;4419950;32;20420;-74
2022/10/18 10:12:29;;;;;;;14.87;2.15;;;;;;;;;;4421408;32;20100;-74
2022/10/18 10:15:05;;;;;;;9.52;1.90;;;;;;;;;;4420274;32;20053;-73
2022/10/18 10:17:30;;;;;;;12.30;2.77;;;;;;;;;;4420442;32;20065;-74
2022/10/18 10:19:59;;;;;;;12.52;2.95;;;;;;;;;;4419320;32;20110;-73
2022/10/18 10:22:32;;;;;;;6.20;2.35;;;;;;;;;;4419820;32;20072;-75
2022/10/18 10:24:58;;;;;;;13.75;2.53;;;;;;;;;;4419686;32;20030;-73
2022/10/18 10:27:31;;;;;;;12.35;2.47;;;;;;;;;;4420491;32;20053;-73
2022/10/18 10:29:57;;;;;;;11.65;2.30;;;;;;;;;;4422114;32;20046;-73
2022/10/18 10:32:24;;;;;;;15.25;2.58;;;;;;;;;;4420744;32;20022;-73
2022/10/18 10:34:49;;;;;;;15.80;7.00;;;;;;;;;;4421546;32;20034;-73
2022/10/18 10:37:22;;;;;;;14.63;2.30;;;;;;;;;;4421417;32;20048;-72
2022/10/18 10:40:12;;;;;;;9.90;2.47;;;;;;;;;;4405690;32;20072;-73
2022/10/18 10:42:47;;;;;;;9.88;2.00;;;;;;;;;;4421118;32;20014;-73
2022/10/18 10:45:12;;;;;;;7.50;1.65;;;;;;;;;;4421222;32;20018;-73
2022/10/18 10:47:37;;;;;;;8.82;2.42;;;;;;;;;;4409720;32;20049;-73
2022/10/18 10:50:10;;;;;;;11.75;1.90;;;;;;;;;;4423382;32;20442;-74
2022/10/18 10:52:36;;;;;;;7.32;1.95;;;;;;;;;;4424234;32;20069;-73
2022/10/18 10:55:02;;;;;;;6.85;2.20;;;;;;;;;;4409533;32;20095;-73
2022/10/18 10:57:27;;;;;;;9.85;2.53;;;;;;;;;;4422285;32;20053;-74
2022/10/18 10:59:54;;;;;;;10.20;2.25;;;;;;;;;;4409738;32;20022;-73
2022/10/18 11:02:28;;;;;;;11.75;2.30;;;;;;;;;;4422813;32;20063;-74
2022/10/18 11:04:54;;;;;;;9.10;2.05;;;;;;;;;;4422367;32;20018;-74
2022/10/18 11:07:38;;;;;;;12.30;2.30;;;;;;;;;;4421864;32;20427;-74
2022/10/18 11:10:09;;;;;;;7.47;2.45;;;;;;;;;;4421324;32;20038;-74
2022/10/18 11:12:39;;;;;;;8.25;2.35;;;;;;;;;;4421995;32;20026;-74
2022/10/18 11:15:11;;;;;;;17.35;3.12;;;;;;;;;;4422248;32;20026;-74
2022/10/18 11:17:42;;;;;;;13.25;3.28;;;;;;;;;;4423287;32;20067;-72
2022/10/18 11:20:10;;;;;;;6.80;2.10;;;;;;;;;;4421403;32;20114;-74
2022/10/18 11:22:44;;;;;;;10.15;1.90;;;;;;;;;;4422740;32;20051;-74
2022/10/18 11:25:12;;;;;;;16.23;2.40;;;;;;;;;;4407684;32;20034;-75
2022/10/18 11:27:45;;;;;;;10.32;2.37;;;;;;;;;;4393612;32;20455;-76
2022/10/18 11:30:29;;;;;;;7.80;2.17;;;;;;;;;;4408495;32;20275;-75
2022/10/18 11:33:03;;;;;;;10.02;2.22;;;;;;;;;;4405971;32;20056;-75
2022/10/18 11:35:37;;;;;;;7.37;2.45;;;;;;;;;;4405699;32;20026;-75
2022/10/18 11:38:08;;;;;;;10.25;2.45;;;;;;;;;;4391816;32;20027;-75
2022/10/18 11:40:34;;;;;;;10.15;2.60;;;;;;;;;;4392089;32;20336;-75
2022/10/18 11:43:14;;;;;;;14.10;2.45;;;;;;;;;;4391905;32;20053;-75
2022/10/18 11:46:06;;;;;;;14.75;2.58;;;;;;;;;;4406651;32;20122;-74
2022/10/18 11:48:54;;;;;;;11.93;2.37;;;;;;;;;;4389971;32;20082;-75
2022/10/18 11:51:19;;;;;;;9.23;2.25;;;;;;;;;;4398966;32;20035;-74
2022/10/18 11:53:56;;;;;;;7.33;1.93;;;;;;;;;;4406116;32;20105;-74
2022/10/18 11:56:21;;;;;;;10.23;2.30;;;;;;;;;;4391672;32;20221;-75
2022/10/18 11:58:55;;;;;;;7.37;2.00;;;;;;;;;;4405333;32;20019;-76
2022/10/18 12:01:23;;;;;;;8.63;2.47;;;;;;;;;;4405868;32;20575;-75
2022/10/18 12:03:53;;;;;;;9.95;2.10;;;;;;;;;;4391708;32;20097;-75
2022/10/18 12:06:20;;;;;;;6.95;2.03;;;;;;;;;;4406560;32;20053;-74
2022/10/18 12:08:48;;;;;;;6.10;2.17;;;;;;;;;;4407488;32;20042;-76
2022/10/18 12:11:16;;;;;;;5.72;2.28;;;;;;;;;;4407216;32;20048;-75
2022/10/18 12:13:52;;;;;;;6.47;1.60;;;;;;;;;;4420565;32;20048;-75
2022/10/18 12:16:17;;;;;;;;;;;;;;;;;;4417952;32;20129;-76
2022/10/18 12:18:48;;;;;;;10.65;2.30;;;;;;;;;;4406516;32;19944;-75
2022/10/18 12:21:14;;;;;;;3.33;1.50;;;;;;;;;;4406048;32;20034;-74
2022/10/18 12:23:54;;;;;;;4.85;1.80;;;;;;;;;;4391581;32;20041;-75
2022/10/18 12:26:20;;;;;;;7.30;1.70;;;;;;;;;;4392175;32;20021;-75
2022/10/18 12:28:45;;;;;;;5.55;2.37;;;;;;;;;;4390938;32;20150;-76
2022/10/18 12:31:16;;;;;;;6.20;1.98;;;;;;;;;;4405136;32;20137;-75
2022/10/18 12:33:44;;;;;;;6.47;1.90;;;;;;;;;;4391174;32;20023;-75
2022/10/18 12:36:28;;;;;;;6.43;1.75;;;;;;;;;;4405750;32;20031;-75
2022/10/18 12:38:58;;;;;;;7.43;2.00;;;;;;;;;;4391004;32;20030;-75
2022/10/18 12:41:32;;;;;;;5.00;2.00;;;;;;;;;;4406950;32;20026;-75
2022/10/18 12:44:16;;;;;;;6.93;2.40;;;;;;;;;;4405042;32;20438;-74
2022/10/18 12:46:47;;;;;;;9.52;2.22;;;;;;;;;;4404788;32;20384;-75
2022/10/18 12:49:12;;;;;;;9.85;1.75;;;;;;;;;;4405254;32;20466;-75
2022/10/18 12:52:04;;;;;;;3.62;1.65;;;;;;;;;;4405059;32;20022;-74
2022/10/18 12:54:38;;;;;;;7.30;2.37;;;;;;;;;;4402567;32;20061;-75
2022/10/18 12:57:05;;;;;;;3.58;1.65;;;;;;;;;;4391012;32;20416;-74
2022/10/18 12:59:38;;;;;;;5.85;1.70;;;;;;;;;;4404693;32;20042;-76
2022/10/18 13:02:04;;;;;;;4.43;1.52;;;;;;;;;;4406702;32;20404;-75
2022/10/18 13:04:32;;;;;;;7.25;1.83;;;;;;;;;;4390557;32;20467;-75
2022/10/18 13:06:58;;;;;;;4.90;1.33;;;;;;;;;;4404754;32;20073;-75
2022/10/18 13:09:36;;;;;;;7.68;1.92;;;;;;;;;;4390058;32;20424;-75
2022/10/18 13:12:11;;;;;;;6.35;1.98;;;;;;;;;;4405515;32;20050;-75
2022/10/18 13:14:55;;;;;;;12.35;2.28;;;;;;;;;;4404928;32;20034;-76
2022/10/18 13:17:29;;;;;;;8.85;2.37;;;;;;;;;;4405115;32;20058;-76
2022/10/18 13:20:13;;;;;;;7.18;1.87;;;;;;;;;;4404684;32;20042;-76
2022/10/18 13:22:38;;;;;;;5.85;1.67;;;;;;;;;;4397366;32;20120;-75
2022/10/18 13:25:10;;;;;;;8.32;1.87;;;;;;;;;;4419918;32;20022;-75
2022/10/18 13:27:38;;;;;;;4.70;1.60;;;;;;;;;;4419484;32;20038;-75
2022/10/18 13:30:22;;;;;;;7.35;2.00;;;;;;;;;;4394185;32;20037;-75
2022/10/18 13:32:56;;;;;;;6.37;2.30;;;;;;;;;;4390097;32;20029;-75
2022/10/18 13:35:41;;;;;;;7.93;2.30;;;;;;;;;;4407202;32;20490;-74
2022/10/18 13:38:25;;;;;;;4.93;1.90;;;;;;;;;;4418492;32;20089;-75
2022/10/18 13:41:01;;;;;;;8.88;1.95;;;;;;;;;;4420122;32;20065;-76
2022/10/18 13:43:45;;;;;;;8.18;1.75;;;;;;;;;;4404659;32;20041;-75
2022/10/18 13:46:10;;;;;;;4.90;1.60;;;;;;;;;;4405990;32;20022;-76
2022/10/18 13:48:35;;;;;;;10.40;2.20;;;;;;;;;;4419996;32;20072;-75
2022/10/18 13:51:08;;;;;;;5.03;1.90;;;;;;;;;;4420620;32;20018;-76
2022/10/18 13:53:40;;;;;;;4.10;1.30;;;;;;;;;;4420307;32;20052;-75
2022/10/18 13:56:34;;;;;;;2.70;1.12;;;;;;;;;;4420791;32;20113;-74
2022/10/18 13:59:18;;;;;;;6.55;2.58;;;;;;;;;;4352901;32;20459;-74
2022/10/18 14:01:48;;;;;;;6.90;1.85;;;;;;;;;;4405391;32;20106;-75
2022/10/18 14:04:36;;;;;;;6.40;2.15;;;;;;;;;;4419857;32;20067;-76
2022/10/18 14:07:03;;;;;;;7.07;1.92;;;;;;;;;;4391081;32;20325;-76
2022/10/18 14:09:32;;;;;;;4.97;1.83;;;;;;;;;;4404634;32;20087;-74
2022/10/18 14:12:16;;;;;;;7.70;1.65;;;;;;;;;;4404245;32;20351;-76
2022/10/18 14:14:49;;;;;;;7.70;2.03;;;;;;;;;;4390661;32;20064;-75
2022/10/18 14:17:14;;;;;;;5.05;1.65;;;;;;;;;;4390924;32;20105;-76
2022/10/18 14:19:49;;;;;;;8.83;2.27;;;;;;;;;;4390429;32;20058;-75
2022/10/18 14:22:14;;;;;;;4.43;1.62;;;;;;;;;;4407413;32;20114;-76
2022/10/18 14:24:42;;;;;;;6.75;1.85;;;;;;;;;;4407438;32;20088;-75
2022/10/18 14:27:13;;;;;;;6.37;1.58;;;;;;;;;;4392850;32;20025;-75
2022/10/18 14:29:39;;;;;;;6.78;2.08;;;;;;;;;;4392871;32;20027;-76
2022/10/18 14:32:07;;;;;;;4.70;1.58;;;;;;;;;;4393310;32;20018;-76
2022/10/18 14:34:33;;;;;;;7.78;2.00;;;;;;;;;;4406982;32;20065;-75
2022/10/18 14:36:58;;;;;;;5.65;2.17;;;;;;;;;;4421762;32;20022;-75
2022/10/18 14:39:26;;;;;;;12.95;1.90;;;;;;;;;;4422110;32;20022;-76
2022/10/18 14:41:52;;;;;;;7.15;1.60;;;;;;;;;;4420015;32;20062;-75
2022/10/18 14:44:25;;;;;;;10.35;1.90;;;;;;;;;;4382583;32;20385;-75
2022/10/18 14:47:09;;;;;;;13.15;2.62;;;;;;;;;;4397288;32;20038;-76